Time;durP1;ratioP1;P1;durP2;ratioP2;P2;SDS_P1;SDS_P2;PMS_P1;PMS_P2;Temp;Humidity;BMP_temperature;BMP_pressure;BME280_temperature;BME280_humidity;BME280_pressure;Samples;Min_cycle;Max_cycle;Signal;HPM_P1;HPM_P2
2022/02/24 00:21:38;;;;;;;9.95;7.78;;;;;;;;;;5175021;27;20101;-74
2022/02/24 00:24:45;;;;;;;10.30;8.15;;;;;;;;;;5147153;27;20090;-78
2022/02/24 00:27:51;;;;;;;9.52;8.07;;;;;;;;;;5146515;27;20147;-71
2022/02/24 00:30:57;;;;;;;10.48;7.90;;;;;;;;;;5146178;27;20067;-66
2022/02/24 00:34:03;;;;;;;10.68;7.60;;;;;;;;;;5146730;27;20166;-66
2022/02/24 00:37:09;;;;;;;9.50;7.93;;;;;;;;;;5146243;27;20517;-66
2022/02/24 00:40:15;;;;;;;10.57;8.50;;;;;;;;;;5146695;27;20612;-74
2022/02/24 00:43:20;;;;;;;9.38;7.78;;;;;;;;;;5148980;27;20090;-72
2022/02/24 00:45:53;;;;;;;9.38;8.07;;;;;;;;;;5161429;27;20518;-72
2022/02/24 00:48:59;;;;;;;11.38;7.93;;;;;;;;;;5137232;27;20170;-71
2022/02/24 00:51:25;;;;;;;10.32;8.60;;;;;;;;;;5166840;27;20098;-75
2022/02/24 00:53:52;;;;;;;11.48;8.55;;;;;;;;;;5173141;27;20107;-75
2022/02/24 00:56:18;;;;;;;10.60;8.40;;;;;;;;;;5173682;27;20101;-75
2022/02/24 00:58:44;;;;;;;8.93;7.50;;;;;;;;;;5160004;27;20558;-75
2022/02/24 01:01:10;;;;;;;10.13;8.05;;;;;;;;;;5159950;27;20105;-75
2022/02/24 01:03:37;;;;;;;9.55;7.93;;;;;;;;;;5160462;27;20094;-75
2022/02/24 01:06:03;;;;;;;9.45;8.35;;;;;;;;;;5158396;27;20093;-68
2022/02/24 01:08:30;;;;;;;9.45;8.45;;;;;;;;;;5140411;27;20191;-68
2022/02/24 01:10:56;;;;;;;10.93;8.50;;;;;;;;;;5140304;27;20078;-69
2022/02/24 01:13:22;;;;;;;10.50;9.40;;;;;;;;;;5159067;27;20575;-67
2022/02/24 01:15:49;;;;;;;10.45;8.63;;;;;;;;;;5157331;27;20085;-67
2022/02/24 01:18:15;;;;;;;9.80;8.27;;;;;;;;;;5158659;27;20233;-67
2022/02/24 01:20:41;;;;;;;9.88;8.13;;;;;;;;;;5157701;27;20176;-67
2022/02/24 01:23:07;;;;;;;10.65;8.93;;;;;;;;;;5156927;27;20089;-67
2022/02/24 01:25:34;;;;;;;10.88;9.18;;;;;;;;;;5158831;27;20094;-67
2022/02/24 01:28:01;;;;;;;9.20;8.30;;;;;;;;;;5157319;27;20161;-67
2022/02/24 01:30:28;;;;;;;12.40;9.75;;;;;;;;;;5157220;27;20188;-67
2022/02/24 01:32:54;;;;;;;9.60;8.15;;;;;;;;;;5122762;27;20139;-67
2022/02/24 01:35:20;;;;;;;11.27;9.63;;;;;;;;;;5157094;27;20166;-67
2022/02/24 01:37:47;;;;;;;10.70;8.60;;;;;;;;;;5157111;27;20101;-67
2022/02/24 01:40:14;;;;;;;10.73;9.60;;;;;;;;;;5158977;27;20105;-67
2022/02/24 01:42:41;;;;;;;10.60;8.85;;;;;;;;;;5157062;27;20168;-66
2022/02/24 01:45:09;;;;;;;10.07;8.52;;;;;;;;;;5157054;27;20146;-67
2022/02/24 01:47:35;;;;;;;10.00;8.82;;;;;;;;;;5157463;27;20074;-67
2022/02/24 01:50:03;;;;;;;9.68;8.68;;;;;;;;;;5139976;27;20145;-67
2022/02/24 01:52:29;;;;;;;10.77;9.30;;;;;;;;;;5158566;27;20541;-67
2022/02/24 01:54:56;;;;;;;9.73;8.40;;;;;;;;;;5158999;27;20126;-67
2022/02/24 01:57:22;;;;;;;9.48;8.15;;;;;;;;;;5157230;27;20098;-67
2022/02/24 01:59:49;;;;;;;9.15;7.95;;;;;;;;;;5158815;27;20086;-67
2022/02/24 02:02:16;;;;;;;8.93;7.65;;;;;;;;;;5140066;27;20164;-67
2022/02/24 02:04:43;;;;;;;10.00;8.77;;;;;;;;;;5157097;27;20498;-67
2022/02/24 02:07:10;;;;;;;9.60;8.20;;;;;;;;;;5157150;27;20101;-67
2022/02/24 02:09:37;;;;;;;9.77;8.18;;;;;;;;;;5156985;27;20102;-67
2022/02/24 02:12:04;;;;;;;8.80;7.90;;;;;;;;;;5139974;27;20090;-67
2022/02/24 02:14:31;;;;;;;10.25;8.48;;;;;;;;;;5157335;27;20101;-71
2022/02/24 02:16:59;;;;;;;9.60;8.60;;;;;;;;;;5174066;27;20101;-68
2022/02/24 02:19:28;;;;;;;12.50;9.27;;;;;;;;;;5157028;27;20540;-70
2022/02/24 02:21:54;;;;;;;9.88;8.88;;;;;;;;;;5140079;27;20109;-68
2022/02/24 02:24:21;;;;;;;10.68;8.63;;;;;;;;;;5156987;27;20081;-69
2022/02/24 02:26:49;;;;;;;10.13;8.98;;;;;;;;;;5156676;27;20086;-70
2022/02/24 02:29:17;;;;;;;10.00;8.85;;;;;;;;;;5156941;27;20109;-68
2022/02/24 02:31:43;;;;;;;9.50;8.43;;;;;;;;;;5156787;27;20070;-68
2022/02/24 02:34:12;;;;;;;9.35;8.20;;;;;;;;;;5174340;27;20173;-68
2022/02/24 02:36:40;;;;;;;11.40;8.73;;;;;;;;;;5141805;27;20175;-71
2022/02/24 02:39:10;;;;;;;10.68;8.43;;;;;;;;;;5141683;27;20093;-69
2022/02/24 02:41:38;;;;;;;9.98;8.57;;;;;;;;;;5125134;27;20090;-69
2022/02/24 02:44:04;;;;;;;11.65;8.80;;;;;;;;;;5159946;27;20058;-70
2022/02/24 02:46:30;;;;;;;11.05;8.98;;;;;;;;;;5141218;27;20117;-66
2022/02/24 02:48:57;;;;;;;10.02;8.40;;;;;;;;;;5159817;27;20447;-67
2022/02/24 02:51:23;;;;;;;8.95;8.05;;;;;;;;;;5160077;27;20077;-67
2022/02/24 02:53:49;;;;;;;11.40;8.93;;;;;;;;;;5160117;27;20102;-67
2022/02/24 02:56:16;;;;;;;11.38;9.13;;;;;;;;;;5158337;27;20186;-67
2022/02/24 02:58:42;;;;;;;10.43;8.88;;;;;;;;;;5159807;27;20181;-67
2022/02/24 03:01:09;;;;;;;10.77;8.95;;;;;;;;;;5158271;27;20399;-67
2022/02/24 03:03:35;;;;;;;9.75;8.75;;;;;;;;;;5158098;27;20310;-67
2022/02/24 03:06:01;;;;;;;12.60;9.15;;;;;;;;;;5158405;27;20547;-72
2022/02/24 03:08:28;;;;;;;9.70;8.38;;;;;;;;;;5160489;27;20431;-68
2022/02/24 03:10:54;;;;;;;10.27;8.57;;;;;;;;;;5160124;27;20120;-67
2022/02/24 03:13:20;;;;;;;10.40;9.02;;;;;;;;;;5175866;27;20086;-67
2022/02/24 03:15:47;;;;;;;10.23;8.80;;;;;;;;;;5157968;27;20106;-67
2022/02/24 03:18:13;;;;;;;12.45;10.98;;;;;;;;;;5159017;27;20098;-67
2022/02/24 03:20:39;;;;;;;11.00;9.65;;;;;;;;;;5160540;27;20093;-69
2022/02/24 03:23:08;;;;;;;12.10;9.30;;;;;;;;;;5167988;27;20199;-68
2022/02/24 03:25:34;;;;;;;10.98;8.93;;;;;;;;;;5162085;27;20489;-72
2022/02/24 03:28:01;;;;;;;11.95;9.60;;;;;;;;;;5143625;27;20191;-70
2022/02/24 03:30:27;;;;;;;11.48;9.38;;;;;;;;;;5181638;27;20093;-70
2022/02/24 03:32:54;;;;;;;12.00;9.65;;;;;;;;;;5181525;27;20074;-69
2022/02/24 03:35:21;;;;;;;10.57;9.23;;;;;;;;;;5162276;27;20525;-71
2022/02/24 03:37:48;;;;;;;11.52;9.32;;;;;;;;;;5162090;27;20504;-71
2022/02/24 03:40:15;;;;;;;10.88;8.93;;;;;;;;;;5162418;27;20461;-69
2022/02/24 03:42:43;;;;;;;11.48;9.38;;;;;;;;;;5180839;27;20092;-67
2022/02/24 03:45:10;;;;;;;10.88;9.13;;;;;;;;;;5180677;27;20473;-67
2022/02/24 03:47:36;;;;;;;12.37;8.85;;;;;;;;;;5179923;27;20101;-68
2022/02/24 03:50:07;;;;;;;10.93;9.52;;;;;;;;;;5143952;27;20113;-68
2022/02/24 03:52:33;;;;;;;11.07;9.45;;;;;;;;;;5143399;27;20090;-67
2022/02/24 03:55:00;;;;;;;11.30;9.60;;;;;;;;;;5179628;27;20118;-67
2022/02/24 03:57:27;;;;;;;11.68;9.15;;;;;;;;;;5161047;27;20141;-71
2022/02/24 03:59:53;;;;;;;11.35;9.48;;;;;;;;;;5126475;27;20134;-70
2022/02/24 04:02:19;;;;;;;11.68;9.50;;;;;;;;;;5160845;27;20101;-70
2022/02/24 04:04:46;;;;;;;10.68;9.25;;;;;;;;;;5143723;27;20078;-70
2022/02/24 04:07:12;;;;;;;10.60;9.38;;;;;;;;;;5180231;27;20073;-69
2022/02/24 04:09:38;;;;;;;11.82;9.57;;;;;;;;;;5161111;27;20082;-71
2022/02/24 04:12:06;;;;;;;12.98;10.15;;;;;;;;;;5143452;27;20086;-70
2022/02/24 04:14:32;;;;;;;12.32;9.43;;;;;;;;;;5161081;27;20145;-69
2022/02/24 04:16:59;;;;;;;10.68;9.25;;;;;;;;;;5143693;27;20106;-69
2022/02/24 04:19:26;;;;;;;12.85;10.00;;;;;;;;;;5179889;27;20687;-69
2022/02/24 04:21:53;;;;;;;12.93;9.70;;;;;;;;;;5143881;27;20178;-68
2022/02/24 04:24:19;;;;;;;13.02;9.82;;;;;;;;;;5180392;27;20133;-70
2022/02/24 04:26:45;;;;;;;10.82;9.27;;;;;;;;;;5160831;27;20078;-70
2022/02/24 04:29:11;;;;;;;13.45;10.32;;;;;;;;;;5160498;27;20134;-70
2022/02/24 04:31:38;;;;;;;11.43;9.27;;;;;;;;;;5160862;27;20179;-70
2022/02/24 04:34:04;;;;;;;10.50;9.25;;;;;;;;;;5180171;27;20081;-70
2022/02/24 04:36:30;;;;;;;11.50;10.15;;;;;;;;;;5125312;27;20110;-70
2022/02/24 04:38:56;;;;;;;12.13;9.82;;;;;;;;;;5178198;27;20236;-70
2022/02/24 04:41:23;;;;;;;12.45;10.30;;;;;;;;;;5160038;27;20109;-69
2022/02/24 04:43:49;;;;;;;11.32;9.68;;;;;;;;;;5161084;27;20097;-70
2022/02/24 04:46:15;;;;;;;11.77;10.48;;;;;;;;;;5143986;27;20138;-70
2022/02/24 04:48:41;;;;;;;13.15;10.70;;;;;;;;;;5180008;27;20469;-68
2022/02/24 04:51:08;;;;;;;10.68;9.57;;;;;;;;;;5160909;27;20108;-70
2022/02/24 04:53:34;;;;;;;14.07;9.85;;;;;;;;;;5160718;27;20097;-68
2022/02/24 04:56:00;;;;;;;14.05;10.95;;;;;;;;;;5159912;27;20474;-69
2022/02/24 04:58:26;;;;;;;13.25;10.32;;;;;;;;;;5178101;27;20094;-70
2022/02/24 05:00:53;;;;;;;12.95;10.38;;;;;;;;;;5161001;27;20121;-70
2022/02/24 05:03:19;;;;;;;14.25;11.07;;;;;;;;;;5178220;27;20082;-69
2022/02/24 05:05:45;;;;;;;11.00;9.38;;;;;;;;;;5160507;27;20180;-69
2022/02/24 05:08:12;;;;;;;12.00;9.63;;;;;;;;;;5179807;27;20179;-70
2022/02/24 05:10:38;;;;;;;14.07;10.90;;;;;;;;;;5160374;27;20433;-70
2022/02/24 05:13:04;;;;;;;10.80;9.70;;;;;;;;;;5160347;27;20085;-70
2022/02/24 05:15:30;;;;;;;11.50;9.32;;;;;;;;;;5179180;27;20074;-70
2022/02/24 05:17:56;;;;;;;11.35;9.82;;;;;;;;;;5179142;27;20078;-68
2022/02/24 05:20:23;;;;;;;11.38;9.70;;;;;;;;;;5160316;27;20093;-67
2022/02/24 05:22:49;;;;;;;11.88;10.38;;;;;;;;;;5179282;27;20596;-68
2022/02/24 05:25:15;;;;;;;11.38;9.80;;;;;;;;;;5179517;27;20126;-69
2022/02/24 05:27:43;;;;;;;13.02;11.43;;;;;;;;;;5143165;27;20102;-69
2022/02/24 05:30:11;;;;;;;13.88;10.77;;;;;;;;;;5160000;27;20125;-69
2022/02/24 05:32:38;;;;;;;14.38;10.45;;;;;;;;;;5160445;27;20065;-69
2022/02/24 05:35:05;;;;;;;11.38;9.88;;;;;;;;;;5160125;27;20478;-68
2022/02/24 05:37:32;;;;;;;12.80;10.05;;;;;;;;;;5179142;27;20133;-67
2022/02/24 05:39:58;;;;;;;11.27;9.63;;;;;;;;;;5142852;27;20674;-67
2022/02/24 05:42:25;;;;;;;10.90;9.80;;;;;;;;;;5179287;27;20081;-67
2022/02/24 05:44:51;;;;;;;10.75;9.57;;;;;;;;;;5179108;27;20086;-67
2022/02/24 05:47:17;;;;;;;11.98;9.57;;;;;;;;;;5179195;27;20094;-67
2022/02/24 05:49:44;;;;;;;10.82;9.60;;;;;;;;;;5159856;27;20104;-67
2022/02/24 05:52:11;;;;;;;12.68;9.75;;;;;;;;;;5160216;27;20443;-68
2022/02/24 05:54:37;;;;;;;12.25;9.27;;;;;;;;;;5179382;27;20082;-67
2022/02/24 05:57:04;;;;;;;14.32;9.50;;;;;;;;;;5160441;27;20133;-67
2022/02/24 05:59:31;;;;;;;10.88;8.80;;;;;;;;;;5160114;27;20156;-66
2022/02/24 06:01:57;;;;;;;11.12;9.00;;;;;;;;;;5179248;27;20109;-69
2022/02/24 06:04:24;;;;;;;10.93;9.18;;;;;;;;;;5160358;27;20176;-71
2022/02/24 06:06:51;;;;;;;10.25;9.18;;;;;;;;;;5160490;27;20098;-66
2022/02/24 06:09:17;;;;;;;10.15;8.80;;;;;;;;;;5160854;27;20199;-68
2022/02/24 06:11:46;;;;;;;10.25;8.50;;;;;;;;;;5159890;27;20187;-68
2022/02/24 06:14:12;;;;;;;11.07;9.40;;;;;;;;;;5160122;27;20126;-68
2022/02/24 06:16:38;;;;;;;10.40;8.50;;;;;;;;;;5179250;27;20156;-67
2022/02/24 06:19:05;;;;;;;9.75;8.40;;;;;;;;;;5178780;27;20102;-67
2022/02/24 06:21:31;;;;;;;9.85;8.63;;;;;;;;;;5179213;27;20085;-68
2022/02/24 06:23:57;;;;;;;10.85;9.38;;;;;;;;;;5159704;27;20162;-65
2022/02/24 06:26:24;;;;;;;10.63;8.93;;;;;;;;;;5179209;27;20082;-65
2022/02/24 06:28:50;;;;;;;9.27;8.27;;;;;;;;;;5179116;27;20105;-67
2022/02/24 06:31:16;;;;;;;9.23;8.00;;;;;;;;;;5159210;27;20108;-63
2022/02/24 06:33:42;;;;;;;9.55;8.25;;;;;;;;;;5158404;27;20109;-65
2022/02/24 06:36:09;;;;;;;10.07;8.63;;;;;;;;;;5158656;27;20094;-65
2022/02/24 06:38:35;;;;;;;9.45;8.45;;;;;;;;;;5141065;27;20109;-65
2022/02/24 06:41:01;;;;;;;10.90;8.52;;;;;;;;;;5178780;27;20097;-65
2022/02/24 06:43:28;;;;;;;12.75;8.73;;;;;;;;;;5179113;27;20085;-64
2022/02/24 06:45:54;;;;;;;10.63;8.57;;;;;;;;;;5142634;27;20094;-64
2022/02/24 06:48:21;;;;;;;11.38;8.82;;;;;;;;;;5178905;27;20571;-65
2022/02/24 06:50:49;;;;;;;11.18;8.88;;;;;;;;;;5159992;27;20470;-66
2022/02/24 06:53:15;;;;;;;9.73;8.73;;;;;;;;;;5179052;27;20078;-66
2022/02/24 06:55:41;;;;;;;10.70;8.55;;;;;;;;;;5176964;27;20179;-66
2022/02/24 06:58:08;;;;;;;11.05;8.45;;;;;;;;;;5178966;27;20094;-65
2022/02/24 07:00:34;;;;;;;10.38;8.27;;;;;;;;;;5159338;27;20092;-67
2022/02/24 07:03:00;;;;;;;11.32;8.93;;;;;;;;;;5159937;27;20098;-67
2022/02/24 07:05:26;;;;;;;9.80;8.70;;;;;;;;;;5160093;27;20179;-66
2022/02/24 07:07:53;;;;;;;9.70;8.30;;;;;;;;;;5160303;27;20493;-66
2022/02/24 07:10:19;;;;;;;11.75;9.00;;;;;;;;;;5179115;27;20109;-65
2022/02/24 07:12:45;;;;;;;9.65;7.95;;;;;;;;;;5179414;27;20204;-66
2022/02/24 07:15:13;;;;;;;10.25;8.43;;;;;;;;;;5179426;27;20101;-66
2022/02/24 07:17:45;;;;;;;11.25;7.75;;;;;;;;;;5179465;27;20470;-65
2022/02/24 07:20:13;;;;;;;9.57;8.07;;;;;;;;;;5159928;27;20204;-66
2022/02/24 07:22:39;;;;;;;9.07;7.93;;;;;;;;;;5160679;27;20474;-66
2022/02/24 07:25:06;;;;;;;8.60;7.65;;;;;;;;;;5180463;27;20695;-67
2022/02/24 07:27:33;;;;;;;10.50;8.52;;;;;;;;;;5160921;27;20481;-66
2022/02/24 07:30:00;;;;;;;9.55;8.20;;;;;;;;;;5160848;27;20069;-65
2022/02/24 07:32:26;;;;;;;11.00;8.93;;;;;;;;;;5144046;27;20196;-68
2022/02/24 07:34:52;;;;;;;10.70;8.35;;;;;;;;;;5180237;27;20186;-67
2022/02/24 07:37:19;;;;;;;10.85;7.97;;;;;;;;;;5180627;27;20479;-69
2022/02/24 07:39:45;;;;;;;9.20;7.87;;;;;;;;;;5178491;27;20169;-68
2022/02/24 07:42:12;;;;;;;12.40;8.15;;;;;;;;;;5180206;27;20106;-67
2022/02/24 07:44:38;;;;;;;10.73;8.43;;;;;;;;;;5180055;27;20171;-68
2022/02/24 07:47:04;;;;;;;9.98;8.98;;;;;;;;;;5180302;27;20062;-68
2022/02/24 07:49:31;;;;;;;9.70;8.40;;;;;;;;;;5179918;27;20085;-69
2022/02/24 07:51:57;;;;;;;10.38;8.25;;;;;;;;;;5179921;27;20603;-69
2022/02/24 07:54:23;;;;;;;9.05;8.15;;;;;;;;;;5180362;27;20189;-68
2022/02/24 07:56:52;;;;;;;8.88;7.97;;;;;;;;;;5180253;27;20096;-68
2022/02/24 07:59:20;;;;;;;10.20;8.20;;;;;;;;;;5180262;27;20457;-68
2022/02/24 08:01:47;;;;;;;11.02;8.27;;;;;;;;;;5180104;27;20090;-64
2022/02/24 08:04:15;;;;;;;9.85;8.75;;;;;;;;;;5180450;27;20157;-64
2022/02/24 08:06:44;;;;;;;9.32;8.25;;;;;;;;;;5180148;27;20156;-65
2022/02/24 08:09:11;;;;;;;10.07;8.05;;;;;;;;;;5180477;27;20117;-66
2022/02/24 08:11:38;;;;;;;11.63;8.82;;;;;;;;;;5180346;27;20070;-66
2022/02/24 08:14:11;;;;;;;9.93;8.93;;;;;;;;;;5180159;27;20410;-65
2022/02/24 08:16:40;;;;;;;12.93;9.18;;;;;;;;;;5180048;27;20082;-64
2022/02/24 08:19:07;;;;;;;12.32;9.55;;;;;;;;;;5180377;27;20826;-65
2022/02/24 08:21:34;;;;;;;15.65;9.35;;;;;;;;;;5180028;27;20504;-63
2022/02/24 08:24:05;;;;;;;13.13;9.95;;;;;;;;;;5179915;27;20071;-63
2022/02/24 08:26:45;;;;;;;10.65;9.55;;;;;;;;;;5180432;27;20103;-63
2022/02/24 08:29:13;;;;;;;13.35;9.50;;;;;;;;;;5180039;27;20094;-63
2022/02/24 08:31:43;;;;;;;10.88;8.98;;;;;;;;;;5180172;27;20537;-63
2022/02/24 08:34:42;;;;;;;10.40;9.10;;;;;;;;;;5166095;27;20159;-64
2022/02/24 08:37:15;;;;;;;10.25;8.15;;;;;;;;;;5180379;27;20106;-64
2022/02/24 08:39:49;;;;;;;8.48;7.35;;;;;;;;;;5179810;27;20125;-68
2022/02/24 08:42:33;;;;;;;8.77;6.80;;;;;;;;;;5180248;27;20082;-68
2022/02/24 08:45:07;;;;;;;8.20;7.25;;;;;;;;;;5180096;27;20117;-68
2022/02/24 08:48:13;;;;;;;8.82;7.68;;;;;;;;;;5152682;27;20540;-67
2022/02/24 08:51:02;;;;;;;8.80;7.72;;;;;;;;;;5180015;27;20077;-67
2022/02/24 08:54:08;;;;;;;9.88;8.40;;;;;;;;;;5118200;27;20081;-67
2022/02/24 08:57:00;;;;;;;9.80;7.15;;;;;;;;;;5179323;27;20078;-67
2022/02/24 09:00:08;;;;;;;9.35;7.82;;;;;;;;;;5151825;27;20172;-69
2022/02/24 09:02:56;;;;;;;7.78;6.90;;;;;;;;;;5163872;27;20164;-66
2022/02/24 09:06:02;;;;;;;7.97;6.35;;;;;;;;;;5140805;27;20086;-67
2022/02/24 09:09:08;;;;;;;7.57;6.77;;;;;;;;;;5164035;27;20101;-68
2022/02/24 09:12:14;;;;;;;8.63;7.67;;;;;;;;;;5163701;27;20551;-67
2022/02/24 09:15:20;;;;;;;8.00;7.20;;;;;;;;;;5152345;27;20139;-67
2022/02/24 09:18:26;;;;;;;9.03;7.07;;;;;;;;;;5164101;27;20640;-66
2022/02/24 09:21:33;;;;;;;8.63;6.80;;;;;;;;;;5163505;27;20089;-67
2022/02/24 09:23:59;;;;;;;9.00;7.55;;;;;;;;;;5160567;27;20108;-68
2022/02/24 09:26:25;;;;;;;9.75;7.25;;;;;;;;;;5179600;27;20073;-67
2022/02/24 09:28:52;;;;;;;8.93;7.18;;;;;;;;;;5179772;27;20505;-65
2022/02/24 09:31:20;;;;;;;7.78;6.97;;;;;;;;;;5179950;27;20113;-67
2022/02/24 09:33:47;;;;;;;8.00;7.20;;;;;;;;;;5179643;27;20125;-68
2022/02/24 09:36:13;;;;;;;8.77;7.15;;;;;;;;;;5179517;27;20559;-68
2022/02/24 09:38:40;;;;;;;8.20;7.05;;;;;;;;;;5179770;27;20100;-68
2022/02/24 09:41:08;;;;;;;8.60;7.18;;;;;;;;;;5179625;27;20634;-68
2022/02/24 09:43:36;;;;;;;8.20;7.10;;;;;;;;;;5179629;27;20155;-66
2022/02/24 09:46:08;;;;;;;10.45;7.72;;;;;;;;;;5179609;27;20520;-65
2022/02/24 09:48:36;;;;;;;10.10;8.48;;;;;;;;;;5179447;27;20109;-65
2022/02/24 09:51:05;;;;;;;12.60;9.23;;;;;;;;;;5179511;27;20458;-67
2022/02/24 09:53:34;;;;;;;9.32;7.68;;;;;;;;;;5179763;27;20909;-69
2022/02/24 09:56:02;;;;;;;10.52;7.20;;;;;;;;;;5179679;27;20092;-70
2022/02/24 09:58:29;;;;;;;8.38;7.37;;;;;;;;;;5179754;27;20203;-69
2022/02/24 10:01:01;;;;;;;9.18;8.07;;;;;;;;;;5179712;27;20193;-68
2022/02/24 10:03:28;;;;;;;13.40;7.95;;;;;;;;;;5179793;27;20088;-68
2022/02/24 10:05:54;;;;;;;10.15;7.85;;;;;;;;;;5160447;27;20093;-69
2022/02/24 10:08:40;;;;;;;11.38;8.15;;;;;;;;;;5179792;27;20097;-71
2022/02/24 10:11:27;;;;;;;9.85;7.53;;;;;;;;;;5180228;27;20510;-71
2022/02/24 10:14:06;;;;;;;10.52;7.37;;;;;;;;;;5180139;27;20070;-67
2022/02/24 10:16:52;;;;;;;9.07;7.43;;;;;;;;;;5179765;27;20085;-71
2022/02/24 10:19:41;;;;;;;10.48;7.82;;;;;;;;;;5160480;27;20163;-72
2022/02/24 10:22:11;;;;;;;10.77;7.85;;;;;;;;;;5160741;27;20105;-69
2022/02/24 10:24:39;;;;;;;9.35;7.35;;;;;;;;;;5179900;27;20093;-71
2022/02/24 10:27:18;;;;;;;8.18;7.35;;;;;;;;;;5179611;27;20509;-71
2022/02/24 10:30:04;;;;;;;8.35;7.47;;;;;;;;;;5144233;27;20061;-71
2022/02/24 10:32:32;;;;;;;8.27;7.30;;;;;;;;;;5179428;27;20129;-71
2022/02/24 10:35:17;;;;;;;8.30;7.10;;;;;;;;;;5179343;27;20109;-71
2022/02/24 10:37:44;;;;;;;11.05;7.82;;;;;;;;;;5179563;27;20368;-71
2022/02/24 10:40:16;;;;;;;9.73;8.20;;;;;;;;;;5160602;27;20167;-71
2022/02/24 10:42:42;;;;;;;8.13;7.30;;;;;;;;;;5179132;27;20175;-72
2022/02/24 10:45:11;;;;;;;9.38;7.15;;;;;;;;;;5179288;27;20089;-69
2022/02/24 10:47:57;;;;;;;8.50;7.45;;;;;;;;;;5179480;27;20534;-67
2022/02/24 10:50:49;;;;;;;9.82;7.90;;;;;;;;;;5179386;27;20090;-68
2022/02/24 10:53:19;;;;;;;7.55;6.57;;;;;;;;;;5179200;27;20138;-67
2022/02/24 10:56:04;;;;;;;9.65;7.15;;;;;;;;;;5179189;27;20462;-68
2022/02/24 10:58:36;;;;;;;7.60;6.30;;;;;;;;;;5180514;27;20092;-68
2022/02/24 11:01:09;;;;;;;8.82;6.68;;;;;;;;;;5181156;27;20488;-68
2022/02/24 11:03:35;;;;;;;10.25;8.10;;;;;;;;;;5180818;27;20105;-68
2022/02/24 11:06:04;;;;;;;8.50;7.07;;;;;;;;;;5180399;27;20536;-68
2022/02/24 11:08:31;;;;;;;8.63;7.43;;;;;;;;;;5180412;27;20583;-68
2022/02/24 11:10:59;;;;;;;9.07;7.50;;;;;;;;;;5180761;27;20422;-69
2022/02/24 11:13:27;;;;;;;8.63;7.12;;;;;;;;;;5162016;27;20101;-69
2022/02/24 11:15:55;;;;;;;8.65;6.70;;;;;;;;;;5181177;27;20096;-67
2022/02/24 11:18:21;;;;;;;8.20;7.32;;;;;;;;;;5180554;27;20085;-67
2022/02/24 11:20:48;;;;;;;7.95;6.90;;;;;;;;;;5180335;27;20081;-68
2022/02/24 11:23:14;;;;;;;8.38;7.15;;;;;;;;;;5180521;27;20078;-68
2022/02/24 11:26:00;;;;;;;8.68;7.28;;;;;;;;;;5161421;27;20069;-69
2022/02/24 11:28:43;;;;;;;8.05;6.70;;;;;;;;;;5180536;27;20157;-67
2022/02/24 11:31:27;;;;;;;8.30;7.10;;;;;;;;;;5162138;27;20081;-67
2022/02/24 11:33:54;;;;;;;9.45;7.22;;;;;;;;;;5161343;27;20157;-66
2022/02/24 11:36:23;;;;;;;10.07;7.72;;;;;;;;;;5161636;27;20528;-67
2022/02/24 11:39:18;;;;;;;8.45;7.55;;;;;;;;;;5180436;27;20066;-68
2022/02/24 11:41:54;;;;;;;9.52;8.13;;;;;;;;;;5161143;27;20524;-67
2022/02/24 11:44:43;;;;;;;9.13;7.55;;;;;;;;;;5180267;27;20073;-68
2022/02/24 11:47:28;;;;;;;11.32;8.43;;;;;;;;;;5180589;27;20085;-69
2022/02/24 11:49:58;;;;;;;9.65;7.90;;;;;;;;;;5161907;27;20105;-70
2022/02/24 11:52:47;;;;;;;8.90;7.37;;;;;;;;;;5180635;27;20094;-69
2022/02/24 11:56:04;;;;;;;9.82;7.75;;;;;;;;;;5152938;27;20461;-70
2022/02/24 11:58:44;;;;;;;7.95;7.15;;;;;;;;;;5180243;27;20058;-71
2022/02/24 12:01:44;;;;;;;10.45;8.05;;;;;;;;;;5163624;27;20087;-72
2022/02/24 12:04:50;;;;;;;8.75;6.68;;;;;;;;;;5151016;27;20109;-75
2022/02/24 12:07:29;;;;;;;9.95;7.43;;;;;;;;;;5161265;27;20167;-71
2022/02/24 12:10:44;;;;;;;10.07;7.57;;;;;;;;;;5141322;27;20101;-70
2022/02/24 12:13:51;;;;;;;11.52;7.90;;;;;;;;;;5164439;27;20487;-69
2022/02/24 12:16:26;;;;;;;13.20;7.85;;;;;;;;;;5161580;27;20074;-66
2022/02/24 12:19:44;;;;;;;10.45;9.43;;;;;;;;;;5164228;27;20105;-66
2022/02/24 12:22:50;;;;;;;9.30;8.35;;;;;;;;;;5152522;27;20113;-67
2022/02/24 12:25:40;;;;;;;9.27;7.97;;;;;;;;;;5132216;27;20093;-67
2022/02/24 12:28:46;;;;;;;9.10;7.83;;;;;;;;;;5164445;27;20101;-67
2022/02/24 12:32:03;;;;;;;10.57;8.27;;;;;;;;;;5140971;27;20195;-67
2022/02/24 12:35:11;;;;;;;9.30;8.30;;;;;;;;;;5152814;27;20455;-67
2022/02/24 12:38:19;;;;;;;13.05;11.63;;;;;;;;;;5152524;27;20086;-67
2022/02/24 12:41:25;;;;;;;11.48;8.52;;;;;;;;;;5164161;27;20098;-67
2022/02/24 12:44:32;;;;;;;11.33;8.03;;;;;;;;;;5163924;27;20116;-66
2022/02/24 12:47:06;;;;;;;8.60;7.70;;;;;;;;;;5180245;27;20140;-67
2022/02/24 12:49:52;;;;;;;10.82;9.73;;;;;;;;;;5161575;27;20058;-67
2022/02/24 12:53:05;;;;;;;9.75;8.75;;;;;;;;;;5152421;27;20094;-67
2022/02/24 12:56:12;;;;;;;9.52;8.02;;;;;;;;;;5152762;27;20418;-64
2022/02/24 12:58:38;;;;;;;8.90;8.00;;;;;;;;;;5180097;27;20108;-63
2022/02/24 13:01:06;;;;;;;9.48;7.97;;;;;;;;;;5180110;27;20127;-66
2022/02/24 13:03:32;;;;;;;10.90;8.35;;;;;;;;;;5179900;27;20118;-66
2022/02/24 13:06:01;;;;;;;10.00;7.75;;;;;;;;;;5180270;27;20195;-72
2022/02/24 13:11:20;;;;;;;11.70;10.25;;;;;;;;;;5180474;27;20104;-72
2022/02/24 13:13:50;;;;;;;8.63;7.57;;;;;;;;;;5179860;27;20132;-65
2022/02/24 13:16:17;;;;;;;9.40;8.25;;;;;;;;;;5180062;27;20081;-64
2022/02/24 13:18:44;;;;;;;8.48;7.43;;;;;;;;;;5179709;27;20098;-67
2022/02/24 13:21:12;;;;;;;11.30;7.30;;;;;;;;;;5179566;27;20102;-67
2022/02/24 13:23:39;;;;;;;8.60;6.65;;;;;;;;;;5179899;27;20485;-67
2022/02/24 13:26:06;;;;;;;8.27;7.28;;;;;;;;;;5180222;27;20109;-67
2022/02/24 13:28:34;;;;;;;7.30;6.60;;;;;;;;;;5179927;27;20164;-66
2022/02/24 13:31:03;;;;;;;11.40;7.80;;;;;;;;;;5179499;27;20085;-66
2022/02/24 13:33:35;;;;;;;9.35;7.30;;;;;;;;;;5179936;27;20580;-67
2022/02/24 13:36:03;;;;;;;9.15;7.45;;;;;;;;;;5180245;27;20085;-66
2022/02/24 13:38:35;;;;;;;9.25;8.35;;;;;;;;;;5179737;27;20485;-66
2022/02/24 13:41:03;;;;;;;11.12;9.98;;;;;;;;;;5179656;27;20516;-66
2022/02/24 13:43:29;;;;;;;12.25;10.60;;;;;;;;;;5160864;27;20490;-68
2022/02/24 13:45:56;;;;;;;10.73;9.60;;;;;;;;;;5180076;27;20086;-67
2022/02/24 13:48:24;;;;;;;12.07;10.13;;;;;;;;;;5179444;27;20481;-65
2022/02/24 13:50:51;;;;;;;13.00;10.57;;;;;;;;;;5160951;27;20093;-66
2022/02/24 13:53:26;;;;;;;13.25;11.25;;;;;;;;;;5178333;27;20113;-66
2022/02/24 13:55:58;;;;;;;13.75;11.40;;;;;;;;;;5180050;27;20595;-66
2022/02/24 13:58:26;;;;;;;13.77;11.90;;;;;;;;;;5180560;27;20093;-66
2022/02/24 14:01:05;;;;;;;14.15;11.68;;;;;;;;;;5178469;27;20481;-66
2022/02/24 14:03:37;;;;;;;14.73;12.48;;;;;;;;;;5181180;27;20462;-66
2022/02/24 14:06:06;;;;;;;17.25;13.55;;;;;;;;;;5169726;27;20108;-67
2022/02/24 14:08:32;;;;;;;16.98;14.02;;;;;;;;;;5197933;27;20082;-68
2022/02/24 14:11:22;;;;;;;16.17;13.90;;;;;;;;;;5200240;27;20183;-67
2022/02/24 14:13:49;;;;;;;15.75;13.70;;;;;;;;;;5196876;27;20089;-67
2022/02/24 14:16:15;;;;;;;15.38;13.13;;;;;;;;;;5196249;27;20152;-68
2022/02/24 14:18:42;;;;;;;13.68;11.93;;;;;;;;;;5200983;27;20069;-67
2022/02/24 14:21:09;;;;;;;14.57;12.10;;;;;;;;;;5184797;27;20117;-70
2022/02/24 14:23:35;;;;;;;13.75;12.18;;;;;;;;;;5181616;27;20112;-70
2022/02/24 14:26:02;;;;;;;14.68;11.80;;;;;;;;;;5180782;27;20113;-69
2022/02/24 14:28:28;;;;;;;16.58;13.35;;;;;;;;;;5180052;27;20082;-68
2022/02/24 14:30:55;;;;;;;20.85;15.00;;;;;;;;;;5179737;27;20158;-67
2022/02/24 14:33:21;;;;;;;18.83;15.25;;;;;;;;;;5179634;27;20070;-66
2022/02/24 14:35:48;;;;;;;20.52;14.80;;;;;;;;;;5179439;27;20078;-67
2022/02/24 14:38:16;;;;;;;18.48;15.63;;;;;;;;;;5179560;27;20100;-67
2022/02/24 14:40:45;;;;;;;18.50;14.65;;;;;;;;;;5179334;27;20172;-67
2022/02/24 14:43:13;;;;;;;16.10;12.30;;;;;;;;;;5179713;27;20070;-68
2022/02/24 14:45:40;;;;;;;17.75;13.05;;;;;;;;;;5179607;27;20106;-67
2022/02/24 14:48:06;;;;;;;16.05;12.18;;;;;;;;;;5179407;27;20070;-69
2022/02/24 14:50:33;;;;;;;15.60;12.55;;;;;;;;;;5179530;27;20089;-68
2022/02/24 14:53:00;;;;;;;16.10;12.88;;;;;;;;;;5179370;27;20057;-68
2022/02/24 14:55:31;;;;;;;17.27;13.80;;;;;;;;;;5179651;27;20399;-67
2022/02/24 14:58:01;;;;;;;19.37;15.10;;;;;;;;;;5179598;27;20085;-68
2022/02/24 15:00:32;;;;;;;17.77;14.50;;;;;;;;;;5179281;27;20089;-65
2022/02/24 15:03:03;;;;;;;16.65;13.70;;;;;;;;;;5179325;27;20082;-64
2022/02/24 15:05:32;;;;;;;13.90;12.00;;;;;;;;;;5177763;27;20090;-72
2022/02/24 15:08:05;;;;;;;14.55;11.02;;;;;;;;;;5179276;27;20061;-76
2022/02/24 15:11:10;;;;;;;14.23;10.90;;;;;;;;;;5148176;27;20090;-72
2022/02/24 15:14:08;;;;;;;14.43;10.90;;;;;;;;;;5179068;27;20089;-71
2022/02/24 15:17:14;;;;;;;13.80;11.35;;;;;;;;;;5162858;27;20062;-69
2022/02/24 15:20:15;;;;;;;16.27;11.85;;;;;;;;;;5164297;27;20085;-73
2022/02/24 15:22:42;;;;;;;15.10;11.05;;;;;;;;;;5179092;27;20473;-71
2022/02/24 15:25:48;;;;;;;15.80;11.88;;;;;;;;;;5163087;27;20443;-74
2022/02/24 15:28:52;;;;;;;15.13;11.73;;;;;;;;;;5162584;27;20163;-75
2022/02/24 15:31:59;;;;;;;16.77;12.27;;;;;;;;;;5163007;27;20183;-75